Terminal Aerodrome Forecast
Issued by NWS Austin/San Antonio, TX

Home | Current Version | Previous Version | Text Only | Print | Product List | Glossary On
Versions: 1 2 3 4 5 6 7 8 9 10 11 12 13 14 15 16 17 18
677
FTUS44 KEWX 100522
TAFAUS
TAF
KAUS 100522Z 1006/1112 04005KT P6SM BKN080
     FM101600 15005KT P6SM OVC022
     FM110000 15007KT 6SM BR VCSH OVC009
     FM110400 17003KT 2SM BR VCSH OVC003=

USA.gov is the U.S. government's official web portal to all federal, state and local government web resources and services.